Top 250   28 MHz   UTC   Spotter   Comment  
J5T   28485.1   19 Nov 13:50   9A2F   fb sig.hr
IS0FWY   28074.0   19 Nov 13:46   IW4EGP   FT8
J5T   28485.0   19 Nov 13:46   IK2VUA   up5
J5T   28485.0   19 Nov 13:43   G4ELJ   up 5
J5T   28485.0   19 Nov 13:42   IZ4IRX   up5 73
J5T   28485.0   19 Nov 13:38   EA4ETN   up 5
J5T   28485.0   19 Nov 13:38   IZ2SNY   TNX 5UP
J5T   28485.0   19 Nov 13:35   IZ4AIF   tnx 5up
J5T   28485.1   19 Nov 13:34   IK3PJX   up
J5T   28485.0   19 Nov 13:30   IZ2QDQ   grazie 73
J5T   28485.0   19 Nov 13:29   IK2HKT   5 UP
CE2AWW   28075.1   19 Nov 12:51   LU1HVK   FT8 FT8 Sent: +00 Rcvd: -09 Dale Chile
9J2BO   28030.0   19 Nov 12:41   IK3JLV   Tnx nice qso Brian. 73 ciao
M0ODV   28485.0   19 Nov 12:33   IT9CLX   THANKS
J5T   28485.0   19 Nov 12:28   SV2CXI   i copy 57 before 10 min
IT9CLX   28485.0   19 Nov 12:27   M0ODV   Great spot
J5T   28485.0   19 Nov 12:26   IT9CLX   NO COPY
J5T   28485.0   19 Nov 12:22   SV2CXI   ---5 up
J5T   28485.0   19 Nov 12:20   IZ0PMV  
J5T   28485.0   19 Nov 12:20   EA4ELC   UP 5
J5T   28485.0   19 Nov 12:19   IK2HKT   5UP
J5T   28485.0   19 Nov 12:19   IW9FIR   today here ever came
J5T   28485.0   19 Nov 12:19   DC5GA   Nothing in JN47FX
EA8YV   28020.0   19 Nov 12:17   DL1HBT  
J5T   28485.0   19 Nov 12:16   IZ5DMQ   10 meters is gone...nothing here
J5T   28485.0   19 Nov 12:11   PY2KNK   NIL 10 meters is dead
J5T   28485.0   19 Nov 12:07   PF1MO   up 6
CT2IUK   28480.0   19 Nov 12:01   CT1EJB   cq cq 10m
J5T   28485.0   19 Nov 12:00   M0NKR   UP 5
J5T   28485.0   19 Nov 12:00   EA8SR   Listen 5 up
J5T   28485.0   19 Nov 12:00   9A6R   TNX QSO.GL
J5T   28485.0   19 Nov 11:58   I8YAV   buona domenica
J5T   28485.0   19 Nov 11:58   G2YT   55
LZ2HR   28021.9   19 Nov 11:53   LZ3FN   LZDXC
LU4CAC   28360.0   19 Nov 11:51   LU4CAC   Cq...Cq
J5T   28485.0   19 Nov 11:48   G0UIH   5/5 up 5
J5T   28485.0   19 Nov 11:48   VK2NSS   listning l/p vk ok
J5T   28485.0   19 Nov 11:44   I0DJV   GRAZIIIEEEE RAGAZZI STRIKEEE
J5T   28485.0   19 Nov 11:43   SP6ITF  
J5T   28485.0   19 Nov 11:42   IK3PCZ   5up
J5T   28485.0   19 Nov 11:42   EA7RU   up5
J5T   28485.0   19 Nov 11:42   DK8MZ   up 5 loud not busy
J5T   28485.0   19 Nov 11:40   IZ8LKL   up5 Grazie !!
J5T   28485.0   19 Nov 11:36   IC8CUQ   Tnx QSO, 73! 100 watt up 5
J5T   28485.0   19 Nov 11:35   IZ8DDL   5 up
J5T   28485.0   19 Nov 11:35   IZ4MJP   up 5. Good signal in Italy
J5T   28485.0   19 Nov 11:34   IZ4TNN   tnx 5 up 73
F5NBX   28028.0   19 Nov 11:33   LZ2DJA   from JN05 cq lz test
LZ2HR   28022.0   19 Nov 11:32   LZ2PL   CW
I2WIJ   28017.2   19 Nov 11:31   LZ2PL   CW
F5NBX   28028.0   19 Nov 11:30   LZ2PL   CW
EA8/E77DX   28010.3   19 Nov 11:30   LZ2PL   CW
EA8/E77DX   28010.3   19 Nov 11:27   LZ3FN   LZDXC
J5T   28485.0   19 Nov 11:21   IK5VQK   uo 5
J5T   28485.0   19 Nov 11:21   I5IIL  
DO1MBV   28074.0   19 Nov 11:18   IK8IOO   tnx
SV1LHZ   28390.0   19 Nov 11:12   SV1MRW   Jim 5/9+
J5T   28485.0   19 Nov 11:07   IZ5ILF   59 up grazie
J5T   28485.0   19 Nov 11:01   9A6R   59..now gone
RN3DCG   28520.0   19 Nov 11:00   RN3DCG  
J5T   28485.0   19 Nov 10:56   IZ8HUJ   tnx 5up
J5T   28485.0   19 Nov 10:53   IK7XLU   pse cw?
J5T   28485.0   19 Nov 10:44   IZ7TLV   GRAZIE...COMPLETED
J5T   28485.0   19 Nov 10:42   IK7XLU  
J5T   28485.0   19 Nov 10:42   EA8VJ   TNX 5/9 ITL 5UP
J5T   28485.0   19 Nov 10:41   RW4FD   tnx
J5T   28485.0   19 Nov 10:41   IV3IZU   grazie
J5T   28485.0   19 Nov 10:40   DF7IW   up 5
J5T   28485.0   19 Nov 10:38   IZ7KDX   5/8 wrkd up 5
J5T   28485.1   19 Nov 10:36   IK5QPV  
LZ5R   28017.0   19 Nov 10:35   F8IJV   CQ Test
J5T   28485.1   19 Nov 10:35   IZ7QFN  
J5T   28485.0   19 Nov 10:34   UC5G   UP 5
J5T   28485.1   19 Nov 10:32   RD3K   QSX 28490.00
UT0NT   28010.6   19 Nov 10:32   UW7LL  
J5T   28485.0   19 Nov 10:31   F4TTR   QSX 28490.0 UP 5.00
J5T   28485.0   19 Nov 10:30   IK0EBA   ik0eba zona 0 niente
J5T   28485.0   19 Nov 10:27   RK4FF   59+++
J5T   28485.0   19 Nov 10:27   IK2LQT   GOO UNA CIPPA. QUA I2 ZERO SEGNALE
J5T   28485.0   19 Nov 10:27   IT9ZZO   very good sig up 5
J5T   28485.0   19 Nov 10:27   IK3HHX   UP5
J5T   28485.0   19 Nov 10:26   RK4FF   5 up
3B9FR   28027.0   19 Nov 10:26   IK0XBX  
J5T   28485.0   19 Nov 10:24   IK2HKT   UP 5 ,, GOOO!!!!!
LZ7Z   28013.1   19 Nov 10:16   ON5ZO   CW
LZ6C   28011.1   19 Nov 10:15   ON5ZO   CW
LZ8E   28017.0   19 Nov 10:15   ON5ZO   CW
3B9FR   28027.0   19 Nov 10:13   UY5QJ  
3B9FR   28027.0   19 Nov 10:11   PD1RK  
3B9FR   28027.0   19 Nov 10:12   3B9FR   cq eu band open
J5T   28000.0   19 Nov 10:07   RK4FF   ?????
F5IN   28014.0   19 Nov 09:52   LZ2PL   CW
OP4F   28000.0   19 Nov 09:49   ON1ID   you are vy bed op
IV3SKB   28018.0   19 Nov 09:49   IZ8FWN   lz test
LZDXC   28014.0   19 Nov 09:40   F5IN  
HG6O   28020.0   19 Nov 09:36   HA6OA   LZ-DX
VK6YM   28074.0   19 Nov 09:32   DJ9KM   band open to vk
UW1M   28024.9   19 Nov 09:29   YP8T   CW
VK2NSS   28074.0   19 Nov 09:23   PD9A   FT8 - QRP to Steve
SV2LZX   28074.0   19 Nov 09:14   SV2ROG   CQ CQ FT8
IZ8RVA/B   28240.0   19 Nov 09:10   F4CXO   JN26PP<ES>JN70LI HRD 529 qsb
SV6DBG/B   28269.0   19 Nov 09:09   F4CXO   JN26PP<ES>KM09KQ HRD 529
VK2NSS   28074.0   19 Nov 09:09   UA3FF   CQ FT8
F5ZUU   28241.0   19 Nov 09:08   F4CXO   JN26PP<>JN24IL HRD 519
VK8AW   28074.0   19 Nov 09:07   UA3FF   FT8 TNX
VK4CAG   28074.0   19 Nov 09:07   F4GTB   -14 in JN18 tnx qso 73
IV3SKB   28018.0   19 Nov 09:05   LZ2PL   CW
A61HA   28450.0   19 Nov 09:02   A61FJ  
ZL2WHO   28074.0   19 Nov 09:01   F1GTU   Sorry for the call
ZL2AWHO   28074.0   19 Nov 08:59   F1GTU   Hrd here -6 to -10
VK8AW   28074.0   19 Nov 08:57   F1GTU   Hrd cq -6 to -10 Here
VK3MEX   28074.0   19 Nov 08:51   PA0O   -6 wide open agn !
VK2NSS   28074.0   19 Nov 08:43   SP5XMU   KO02LG<F2>QF45MA FT8 Tnx QSO
DK1K   28432.0   19 Nov 08:38   DG1KK   KA Contest
DL0AH   28473.0   19 Nov 08:34   DL0AH   K-A Contest ??!!
VK8AW   28074.0   19 Nov 08:32   DH4JQ   FT8 -11 nice tnx
VK2NSS   28076.0   19 Nov 08:27   SP4LVK   tnx
VK2MBK   28075.0   19 Nov 08:21   SP4LVK   ft8 tnx
IV3SKB   28012.0   19 Nov 08:20   IV3HAX   CW
TA1BZ   28074.0   19 Nov 08:20   TA1BZ  
VK4MIL   28074.0   19 Nov 08:15   UA4AVG   tnx QSO 73! FT8
3B9FR   28027.0   19 Nov 08:13   UT6UA   up1 vy loud. Band try to open :-)
VK8AW   28075.4   19 Nov 08:11   SP4LVK   FT8
VK8AW   28075.4   19 Nov 08:10   SP4LVK   tnx jt8
VK5RSC   29620.0   19 Nov 08:10   VK8HW   FM repeater input is 29.520.
3B9FR   28027.0   19 Nov 08:08   IZ1FGY   up 1
VK5WI   29259.5   19 Nov 08:06   VK8HW   Im QRV on 29.620 FM 29.520 in.
HG7T   28025.0   19 Nov 08:04   LZ1RF   CW
3B9FR   28027.0   19 Nov 08:00   SV2CXW   70w tnx 73
VK5SFA   28074.0   19 Nov 07:58   SP7JLH   FT8
VK2MBK   28074.0   19 Nov 07:56   UA4AVG   tnx QSO 73! FT8
3B9FR   28027.0   19 Nov 07:53   IW9GYL   cq cq strong
3B9FR   28027.0   19 Nov 07:51   UZ5ZV   cq
VK4CZ   28074.0   19 Nov 07:49   UA4AVG   tnx QSO 73! FT8
3B9FR   28027.0   19 Nov 07:49   UT2XQ   CW
VK4AFU   28074.0   19 Nov 07:46   UA4AVG   tnx QSO 73! FT8
LZ5R   28014.0   19 Nov 07:46   LZ8R   CW
R7AW   28020.0   19 Nov 07:46   LZ2DJA   from KN95TN cq lzdx test
US8ICM   28022.9   19 Nov 07:45   LZ8R   CW
3B9FR   28027.0   19 Nov 07:43   RW4FD   tnx
LZ5R   28014.0   19 Nov 07:41   EA8/S55M  
3B9FR   28027.0   19 Nov 07:40   SP7JLH   CW
3B9FR   28027.0   19 Nov 07:38   3B9FR   cq europe now
UN8PT   28011.0   19 Nov 07:36   YP8T   CW
3B9FR   28027.0   19 Nov 07:34   3B9FR   cq ja ja ja
US8ICM   28022.9   19 Nov 07:32   UK8OM   cq test
LZ5R   28014.0   19 Nov 07:29   YP8T   CW
LZ5R   28014.0   19 Nov 07:29   LZ3SF   LZ DX
LY5R   28014.0   19 Nov 07:29   DJ9ZB  
US8ICM   28022.9   19 Nov 07:28   YP8T   CW
3B9FR   28027.0   19 Nov 07:24   JH1BNC   CQ
R7AW   28010.8   19 Nov 07:23   YP8T   CW
LZ2HQ   28010.1   19 Nov 07:22   UW7LL  
YP8T   28011.1   19 Nov 07:21   UW7LL  
3B9FR   28027.0   19 Nov 07:20   UA4NE  
LZ2HQ   28010.5   19 Nov 07:20   YP8T   CW
VK5WI   28259.4   19 Nov 04:50   VK8HW   Correction Im qrv 29.620 vk5rsc
VK5WI   28259.4   19 Nov 04:46   VK8HW   I am qrz 29.620 FM vk5rsc.....
VK5RSC   29620.0   19 Nov 04:42   VK8HW   29.520 mHZ in Wonders of E layer.
YJ0JA   28020.0   19 Nov 03:39   JA1VND  
VK3RHF   29640.0   19 Nov 03:39   VK3MEG   its worked 100 khz - offset
VK3RHF   29640.0   19 Nov 03:26   VK8HW   Switched off cause- hams use it. Hi !
VK6RWA   28263.8   19 Nov 03:22   VK8HW   CW beacon Perth WA.
VK3ATX   29640.0   19 Nov 03:05   VK8HW   FM repeater vk3rhf i/p 28.540.
VK3MH   28470.0   19 Nov 03:02   JF1NUV   CQ JA
VK3TEX   28480.0   19 Nov 03:01   JF1NUV   CQ
VK1HW   28490.0   19 Nov 02:25   JA2FBC   CQ
VK4NBX   28480.0   19 Nov 02:19   JA2FBC   cq
VK4NBX   28280.0   19 Nov 02:17   JA2FBC   cq
VK5WI   28260.0   19 Nov 01:59   VK8HW   I am CQ E layer on 28.490 ssb.
CA3JBD   28485.0   19 Nov 01:51   PU8RJI   GRACIAS POR LO QSO! TKS!
CA3JBD   28485.0   19 Nov 01:47   PU2KNM   s5/9+10 in gg55 CQ DX
LW9EYP   28074.0   19 Nov 01:45   LU9DCE  
CA3JBD   28485.0   19 Nov 01:36   PU8PSF   CQ DX CQ DX...
PY6RL   28420.0   19 Nov 01:25   PU8PSF   tks Rosemar..73
VK3YY   28480.0   19 Nov 01:16   VK3YY   VK3/VN-001
PR7HG   28400.0   19 Nov 01:10   PU4MHO   BOA NOITE
PY6RL   28400.0   19 Nov 01:06   PU4MHO   SSB 59 IN GG79 - 73
PY7BC   28410.0   19 Nov 00:52   PY4LDS   gracias contato
PY7BC   28410.0   19 Nov 00:50   PU4MHO   SSB 59 IN GG79 - 73
PR7GA   28405.0   19 Nov 00:43   PU4MHO   SSB 59 IN GG79 - 73
PR7GA   28405.0   19 Nov 00:42   PU8PSF   5/7 mosca branca. 73
PU7MPH   28400.0   19 Nov 00:39   PU2HDC  
PR7GA   28405.0   19 Nov 00:35   PU2OKE   57 IN GG66wl
PU8RJI   28415.0   19 Nov 00:32   PU2HDC  
PU8RJI   28415.0   19 Nov 00:27   PU4MHO   SSB 59 IN GG79 - 73
VK2DX   28074.0   19 Nov 00:21   W7IV   FT8
PU8RJI   28415.0   19 Nov 00:12   PU2OKE   55 IN GG66wl TNX 73
PU8RJI   28415.0   19 Nov 00:09   PY4LDS   gracias contato
PU8RJI   28415.0   19 Nov 00:08   PY2DMZ   USB
PU8RJI   28415.0   19 Nov 00:06   PU8PSF   Maranho..59
PU8RJI   28415.0   19 Nov 00:06   PY1BMN   5/9 in Rio de Janeiro.
PU8RJI   28400.0   19 Nov 00:05   PY2DMZ  
PU0FDN   28400.0   19 Nov 00:05   PY4NY   Tnx QSO my friend. Simplex
PU8RJI   28415.0   19 Nov 00:04   PY2HBS  
PU0FDN   28400.0   19 Nov 00:02   PU5AGM   PU0FDN
PU0FDN   28400.0   18 Nov 23:57   PY2BN   Is pu0fdn not py0fdn
PU0FDN   28400.0   18 Nov 23:56   PR7AR  
PY0FDN   28400.0   18 Nov 23:55   PU5SKW  
PU0FDN   28400.0   18 Nov 23:52   PY7GRM   tnx 73
WH6WI   28490.0   18 Nov 23:52   PY8WW   Cq Alone Strong in South America.
PU0FDN   28400.0   18 Nov 23:48   PR7MB   55 in Joao Pessoa 73
PU0FDN   28400.0   18 Nov 23:46   PU6JLV   Tnx Marenga! 5/7
PU0FDN   28400.0   18 Nov 23:40   PU8RJI   59 no Maranho.
PU0FDN   28400.0   18 Nov 23:36   PY8WW   Simplex
PU0FDN   28400.0   18 Nov 23:35   PY1BMN   5/9 in Rio de Janeiro.
LU5AQU   28350.0   18 Nov 23:35   LU7DH   CQ..cq..
PU0FDN   28400.0   18 Nov 23:34   PU2OKE   GG66WL<>GG66RK 57
PU0FDN   28400.0   18 Nov 23:31   PY4WWW  
PU0FDN   28400.0   18 Nov 23:29   PY1BMC  
PU0FDN   28400.0   18 Nov 23:25   PU8YAB  
PU0FDN   28400.0   18 Nov 23:17   PU2OKE   57 IN GG66wl TNX 73
PU0FDN   28400.0   18 Nov 23:14   PY2EPL   Fernando de Noronha
LU1JIB   28350.0   18 Nov 22:50   LU1JHD   TEST JAPON AND ASIA
WH6WI   28490.0   18 Nov 22:43   LU1JHD  
K6ERF   28074.0   18 Nov 22:15   PU1KDX   TNX FT8
KG6LS   28450.0   18 Nov 22:05   PY4AZ   59 73
LU9DDJ   28430.1   18 Nov 22:04   PY4AZ   59 73
TG9ANF   28074.0   18 Nov 22:02   PU1KDX   TNX FT8
CX8DS   28483.0   18 Nov 22:00   PU9DCB   Correct.
CX9DS   28483.0   18 Nov 21:58   PU9DCB   TNX QSO..in GG27oj..73
VK4CZ   28074.0   18 Nov 21:58   YV4DHS   FT8
PY2AP   28074.0   18 Nov 21:54   YV4DHS   FT8
PU5LMJ   28473.0   18 Nov 21:53   KG6LS   QSB - 4x4 Fla
PU5LMJ   28473.0   18 Nov 21:49   KG6LS   QSB - 4x4
PU1KVA   28450.0   18 Nov 21:41   KG6LS   Heard in Florida
LW1EUD   28443.0   18 Nov 21:39   K0MD   USB
TG9ANF   28074.0   18 Nov 21:38   WB2UJS   FN30NV<>EK44 Thanks Francisco ... 73
CA6WKD   28440.0   18 Nov 21:34   PY2ADX   73 Good DX
ZL4YL   28026.0   18 Nov 21:30   KW4BY   CW 73
LU9DDJ   28430.1   18 Nov 21:25   PT9VR   59 73 "
LU9DDJ   28430.0   18 Nov 21:25   PU2OKE   59 IN GG66wl TNX 73
PU1SMJ   28075.5   18 Nov 21:23   WE7L   10dB FT8 CQing 2nd
LU9DO   28075.5   18 Nov 21:23   WE7L   12dB FT8 CQing 2nd
LU9DDJ   28430.0   18 Nov 21:22   CA3CMH   73 juan carlos good dx
LU9DO   28074.0   18 Nov 21:21   WB2UJS   FN30NV<>GF05
LW1DJL   28075.7   18 Nov 21:21   WE7L   4dB FT8 CQing 1st
PU2MVE   28074.0   18 Nov 21:18   WO2E   OPEN TO SA. FT8
YV4DHS   28075.0   18 Nov 21:17   WE7L   16dB FT8 CQing 1st
XQ3SK   28074.0   18 Nov 21:15   WB2UJS   FN30NV<>FF46
K1JD   28074.0   18 Nov 21:14   YV4DHS   FT8
HK3JJH   28074.0   18 Nov 21:10   YV4DHS   FT8
ZL4YL   28026.0   18 Nov 21:08   WB8ASI  
LU9DDJ   28430.0   18 Nov 21:07   PY2ADX   73 Good DX.....
ZL4YL   28026.0   18 Nov 21:05   ZL4YL   any NA?
LU8EMH   28074.0   18 Nov 21:05   YV4DHS   FT8
PY2VOA   28074.0   18 Nov 21:03   YV4DHS   FT8
1LLEGAL   28005.0   18 Nov 20:52   N8ZI   CBers on 10M CW- Band open for contest
N7RO   28074.0   18 Nov 20:48   K7ULS   hrd -16
PY2XV   28074.0   18 Nov 20:40   K7ULS   hrd -18